Other Surface Observations
Issued by NWS Missoula, MT

Home | Current Version | Previous Version | Text Only | Print | Product List | Glossary On
Versions: 1 2 3 4 5 6 7 8 9 10 11 12 13 14 15 16 17 18 19 20 21 22 23 24 25 26 27 28 29 30 31 32 33 34 35 36 37 38 39 40 41 42 43 44 45 46 47 48 49 50
000
SXUS55 KMSO 280203
OSOMSO
MONTANA AWOS SUMMARY
NATIONAL WEATHER SERVICE MISSOULA MT
803 PM MDT THU AUG 27 2015

Montana AWOS Reports

TWIN BRIDGES|K7S1 280155Z AUTO 00000KT 15SM 24/06 A3009 RMK AO1 T02390056
PLAINS      |KS34 280155Z AUTO 00000KT 10SM 29/05 A2999 RMK AO1 T02940050
LAUREL      |K6S8 280155Z AUTO 21012G16KT 10SM 22/07 A3004 RMK AO1 T02220067
ROUNDUP     |KRPX 280155Z AUTO 20011G15KT 25SM 27/05 A2993 RMK AO1 T02720050
MALTA       |KM75 280155Z AUTO 00000KT 15SM 25/13 A2985 RMK AO1 T02500128
SCOBEY      |K9S2 280155Z AUTO 17004KT 10SM 25/09 A2986 RMK AO1 T02500094
EKALAKA     |K97M 280155Z AUTO 00000KT 25SM 24/11 A2997 RMK AO1 T02440111




USA.gov is the U.S. government's official web portal to all federal, state and local government web resources and services.